EGEC/CAL METAR and TAF weather

Enter ICAO airport designator
Station Type Date Time Source
EGEC METAR 2020/10/20 16:20 UTC NOAA

EGEC 201620Z 15024KT 8000 RA FEW016 BKN021 14/12 Q0987


Station Type Date Time Source
EGEC Decoded METAR 2020/10/20 16:20 UTC NOAA

Campbeltown, United Kingdom (EGEC) 55-26-14N 005-41-11W
Oct 20, 2020 - 12:20 PM EDT / 2020.10.20 1620 UTC
Wind: from the SSE (150 degrees) at 28 MPH (24 KT):0
Visibility: 4 mile(s):0
Sky conditions: mostly cloudy
Weather: rain
Temperature: 57 F (14 C)
Dew Point: 53 F (12 C)
Relative Humidity: 87%
Pressure (altimeter): 29.15 in. Hg (0987 hPa)
ob: EGEC 201620Z 15024KT 8000 RA FEW016 BKN021 14/12 Q0987
cycle: 16

Station Type Date Time Source
EGEC TAF UTC NOAA

Error!

Example: see airport list